Time;durP1;ratioP1;P1;durP2;ratioP2;P2;SDS_P1;SDS_P2;PMS_P1;PMS_P2;Temp;Humidity;BMP_temperature;BMP_pressure;BME280_temperature;BME280_humidity;BME280_pressure;Samples;Min_cycle;Max_cycle;Signal;HPM_P1;HPM_P2
2023/06/01 00:00:20;;;;;;;5.60;2.05;;;;;;;17.01;49.60;101161.06;5038050;28;20041;-57
2023/06/01 00:02:49;;;;;;;12.73;2.53;;;;;;;16.98;49.70;101156.00;5033378;28;20497;-60
2023/06/01 00:05:17;;;;;;;5.57;1.92;;;;;;;16.95;49.80;101151.75;5041879;28;20316;-58
2023/06/01 00:07:44;;;;;;;6.15;2.47;;;;;;;16.87;50.13;101147.03;5035679;28;20604;-62
2023/06/01 00:10:12;;;;;;;5.75;1.90;;;;;;;16.82;50.53;101151.84;5037944;28;20049;-58
2023/06/01 00:12:40;;;;;;;3.65;1.90;;;;;;;16.78;50.74;101146.88;5040755;28;20045;-59
2023/06/01 00:15:07;;;;;;;6.47;1.98;;;;;;;16.75;50.87;101152.44;5037684;28;20499;-56
2023/06/01 00:17:35;;;;;;;5.95;2.22;;;;;;;16.71;52.04;101157.13;5030176;28;20111;-62
2023/06/01 00:20:08;;;;;;;6.63;2.17;;;;;;;16.65;52.00;101150.44;5032935;28;20140;-63
2023/06/01 00:22:39;;;;;;;3.60;2.03;;;;;;;16.63;51.80;101147.06;5034439;28;20159;-59
2023/06/01 00:25:07;;;;;;;4.15;1.92;;;;;;;16.58;52.20;101149.22;5045856;28;20089;-63
2023/06/01 00:27:35;;;;;;;4.82;2.15;;;;;;;16.54;51.75;101144.25;5033862;28;20494;-61
2023/06/01 00:30:03;;;;;;;2.58;1.70;;;;;;;16.49;52.10;101138.44;5034872;28;20073;-64
2023/06/01 00:32:30;;;;;;;12.02;2.58;;;;;;;16.44;52.40;101144.13;5035129;28;20057;-60
2023/06/01 00:34:57;;;;;;;4.50;1.80;;;;;;;16.41;52.30;101149.66;5035135;28;20058;-59
2023/06/01 00:37:24;;;;;;;4.95;1.90;;;;;;;16.36;53.23;101142.03;5036655;28;20744;-61
2023/06/01 00:39:52;;;;;;;4.93;1.85;;;;;;;16.31;53.22;101138.88;5030940;28;20129;-63
2023/06/01 00:42:19;;;;;;;4.75;1.75;;;;;;;16.28;52.80;101143.56;5030859;28;20080;-61
2023/06/01 00:44:46;;;;;;;4.85;1.88;;;;;;;16.25;53.70;101144.63;5036263;28;20117;-62
2023/06/01 00:47:13;;;;;;;5.03;2.10;;;;;;;16.22;53.27;101144.88;5033510;28;20053;-63
2023/06/01 00:49:41;;;;;;;4.75;2.28;;;;;;;16.17;53.90;101147.88;5031323;28;20084;-58
2023/06/01 00:52:08;;;;;;;6.07;2.03;;;;;;;16.13;54.64;101142.91;5023635;28;20149;-57
2023/06/01 00:54:36;;;;;;;6.75;2.25;;;;;;;16.10;54.67;101143.13;5030841;28;20081;-56
2023/06/01 00:57:03;;;;;;;3.47;1.60;;;;;;;16.06;55.13;101142.47;5031030;28;20621;-58
2023/06/01 00:59:30;;;;;;;4.47;1.88;;;;;;;16.05;56.32;101138.13;5035519;28;20053;-57
2023/06/01 01:01:58;;;;;;;8.13;2.30;;;;;;;16.04;56.65;101140.91;5036036;28;20125;-61
2023/06/01 01:04:28;;;;;;;8.20;2.08;;;;;;;16.02;56.33;101142.81;5026781;28;20061;-64
2023/06/01 01:07:26;;;;;;;5.05;2.38;;;;;;;15.97;56.67;101139.66;5029989;28;20140;-61
2023/06/01 01:10:14;;;;;;;6.40;2.25;;;;;;;15.92;57.17;101140.84;5024514;28;20137;-60
2023/06/01 01:12:51;;;;;;;3.97;2.13;;;;;;;15.91;57.20;101140.97;5022798;28;20057;-59
2023/06/01 01:15:30;;;;;;;6.20;2.10;;;;;;;15.85;57.52;101136.09;5023724;28;20132;-63
2023/06/01 01:18:03;;;;;;;5.78;2.95;;;;;;;15.81;57.54;101130.19;5017937;28;20425;-58
2023/06/01 01:20:37;;;;;;;5.53;2.42;;;;;;;15.76;57.98;101131.44;5027748;28;20160;-61
2023/06/01 01:23:32;;;;;;;6.40;2.00;;;;;;;15.74;58.81;101146.66;5024267;28;20049;-59
2023/06/01 01:26:24;;;;;;;7.07;2.35;;;;;;;15.69;58.53;101139.88;5020868;28;20057;-61
2023/06/01 01:29:03;;;;;;;3.72;1.63;;;;;;;15.64;58.32;101136.69;5028831;28;20069;-62
2023/06/01 01:31:32;;;;;;;7.45;2.30;;;;;;;15.62;58.99;101143.03;5020107;28;20175;-62
2023/06/01 01:34:01;;;;;;;7.93;2.55;;;;;;;15.56;59.88;101136.34;5016392;28;20061;-59
2023/06/01 01:36:29;;;;;;;6.43;2.28;;;;;;;15.51;60.42;101133.19;5018282;28;20064;-61
2023/06/01 01:38:56;;;;;;;11.38;3.75;;;;;;;15.48;60.47;101133.41;5020281;28;20124;-61
2023/06/01 01:41:25;;;;;;;5.80;2.50;;;;;;;15.44;61.00;101140.75;5018825;28;20140;-60
2023/06/01 01:43:53;;;;;;;6.10;3.45;;;;;;;15.41;60.91;101140.97;5026168;28;20554;-58
2023/06/01 01:46:27;;;;;;;4.63;2.38;;;;;;;15.38;61.64;101140.31;5029283;28;20117;-63
2023/06/01 01:49:15;;;;;;;6.47;2.90;;;;;;;15.34;61.98;101130.88;5032728;28;20056;-60
2023/06/01 01:52:02;;;;;;;5.85;2.13;;;;;;;15.30;61.98;101130.25;5027258;28;20057;-60
2023/06/01 01:54:29;;;;;;;9.05;2.75;;;;;;;15.28;63.04;101131.34;5026627;28;20069;-59
2023/06/01 01:56:58;;;;;;;5.90;2.50;;;;;;;15.24;62.85;101124.53;5046700;28;20612;-60
2023/06/01 01:59:26;;;;;;;6.57;3.00;;;;;;;15.18;63.31;101126.69;5035530;28;20092;-62
2023/06/01 02:01:54;;;;;;;5.07;2.60;;;;;;;15.12;63.29;101121.78;5028023;28;20050;-59
2023/06/01 02:04:22;;;;;;;5.30;2.20;;;;;;;15.08;63.47;101119.44;5031722;28;20140;-59
2023/06/01 02:06:50;;;;;;;7.88;3.15;;;;;;;15.03;64.32;101125.06;5027383;28;20367;-57
2023/06/01 02:09:17;;;;;;;14.90;3.15;;;;;;;14.96;64.90;101118.53;5027793;28;20509;-60
2023/06/01 02:11:45;;;;;;;6.38;2.72;;;;;;;14.90;65.49;101117.16;5026807;28;20062;-57
2023/06/01 02:14:12;;;;;;;6.10;2.20;;;;;;;14.85;65.13;101119.25;5011176;28;20054;-61
2023/06/01 02:16:39;;;;;;;7.55;2.65;;;;;;;14.80;65.15;101117.88;5027421;28;20062;-60
2023/06/01 02:19:10;;;;;;;6.95;2.22;;;;;;;14.74;65.31;101119.16;5028790;28;20132;-59
2023/06/01 02:21:38;;;;;;;5.80;2.38;;;;;;;14.68;65.73;101117.78;5032723;28;20160;-58
2023/06/01 02:27:03;;;;;;;4.25;2.60;;;;;;;14.62;67.34;101119.97;5025406;28;20431;-59
2023/06/01 02:29:31;;;;;;;8.38;2.67;;;;;;;14.58;67.52;101124.63;5025497;28;20056;-57
2023/06/01 02:31:58;;;;;;;6.60;2.60;;;;;;;14.50;67.93;101118.16;5033801;28;20107;-60
2023/06/01 02:34:25;;;;;;;4.28;2.20;;;;;;;14.45;68.16;101115.78;5025973;28;20084;-60
2023/06/01 02:36:55;;;;;;;7.78;2.60;;;;;;;14.38;68.89;101109.22;5024544;28;20137;-60
2023/06/01 02:39:23;;;;;;;5.38;2.33;;;;;;;14.29;69.50;101117.78;5026974;28;20065;-60
2023/06/01 02:41:51;;;;;;;9.77;2.88;;;;;;;14.21;69.58;101117.44;5026789;28;20104;-59
2023/06/01 02:44:18;;;;;;;8.45;3.33;;;;;;;14.19;70.06;101106.94;5028630;28;20429;-62
2023/06/01 02:46:45;;;;;;;5.80;3.38;;;;;;;14.14;70.84;101112.56;5030932;28;20108;-59
2023/06/01 02:49:12;;;;;;;6.55;3.28;;;;;;;14.06;71.24;101117.50;5040260;28;20053;-60
2023/06/01 02:51:40;;;;;;;6.75;2.80;;;;;;;13.99;71.81;101107.41;5027726;28;20072;-61
2023/06/01 02:54:07;;;;;;;9.10;3.95;;;;;;;13.92;71.88;101110.47;5026306;28;20709;-59
2023/06/01 02:56:34;;;;;;;12.02;3.35;;;;;;;13.88;72.52;101108.97;5028610;28;20049;-61
2023/06/01 02:59:03;;;;;;;10.30;3.17;;;;;;;13.87;72.33;101101.13;5039760;28;20435;-61
2023/06/01 03:01:35;;;;;;;8.45;3.33;;;;;;;13.87;72.08;101117.00;5022592;28;20536;-61
2023/06/01 03:04:07;;;;;;;10.20;3.47;;;;;;;13.85;72.86;101103.84;5028768;28;20052;-59
2023/06/01 03:06:37;;;;;;;10.60;3.28;;;;;;;13.82;73.10;101113.78;5027881;28;20152;-62
2023/06/01 03:09:05;;;;;;;16.15;3.42;;;;;;;13.79;74.32;101109.56;5028211;28;20526;-62
2023/06/01 03:11:32;;;;;;;5.53;2.67;;;;;;;13.69;75.22;101108.47;5021917;28;20042;-60
2023/06/01 03:14:04;;;;;;;13.57;3.53;;;;;;;13.64;75.39;101106.09;5026477;28;20136;-64
2023/06/01 03:16:31;;;;;;;9.95;3.63;;;;;;;13.64;76.03;101114.03;5041951;28;20053;-59
2023/06/01 03:18:58;;;;;;;10.52;4.15;;;;;;;13.53;76.41;101099.78;5043213;28;20103;-59
2023/06/01 03:21:27;;;;;;;13.68;4.10;;;;;;;13.48;77.59;101112.47;5024003;28;20148;-62
2023/06/01 03:23:54;;;;;;;10.13;3.78;;;;;;;13.46;77.67;101109.91;5026751;28;20077;-63
2023/06/01 03:26:21;;;;;;;11.57;5.10;;;;;;;13.35;78.43;101107.09;5026475;28;20080;-61
2023/06/01 03:28:48;;;;;;;9.13;4.50;;;;;;;13.27;79.44;101123.44;5007825;28;20049;-59
2023/06/01 03:31:16;;;;;;;7.18;3.72;;;;;;;13.26;79.70;101124.38;5025375;28;20100;-61
2023/06/01 03:33:43;;;;;;;9.23;4.38;;;;;;;13.20;80.38;101124.75;5023074;28;20046;-58
2023/06/01 03:36:11;;;;;;;12.88;4.60;;;;;;;13.15;80.73;101125.03;5026508;28;20049;-62
2023/06/01 03:38:39;;;;;;;11.27;3.95;;;;;;;13.13;81.36;101124.25;5024961;28;20033;-58
2023/06/01 03:41:06;;;;;;;14.27;4.00;;;;;;;13.07;81.98;101124.63;5023676;28;20065;-63
2023/06/01 03:43:34;;;;;;;10.25;4.80;;;;;;;13.08;81.84;101128.13;5023101;28;20470;-62
2023/06/01 03:46:01;;;;;;;10.35;4.90;;;;;;;13.04;81.99;101122.16;5029409;28;20148;-61
2023/06/01 03:48:28;;;;;;;11.20;5.60;;;;;;;13.02;83.29;101126.72;5019327;28;20068;-60
2023/06/01 03:50:55;;;;;;;18.05;5.28;;;;;;;12.95;83.42;101124.53;5027500;28;20140;-60
2023/06/01 03:53:23;;;;;;;14.55;5.63;;;;;;;12.86;84.22;101126.78;5024068;28;20075;-62
2023/06/01 03:55:50;;;;;;;19.17;6.25;;;;;;;12.79;85.30;101127.25;5019245;28;20050;-62
2023/06/01 03:58:19;;;;;;;14.02;5.65;;;;;;;12.71;86.11;101121.59;5026995;28;20213;-58
2023/06/01 04:00:46;;;;;;;12.38;5.75;;;;;;;12.68;86.09;101118.16;5023824;28;20127;-64
2023/06/01 04:03:15;;;;;;;13.82;5.53;;;;;;;12.71;86.66;101111.03;5026096;28;20050;-60
2023/06/01 04:05:49;;;;;;;13.13;6.32;;;;;;;12.67;86.90;101121.75;5024258;28;20045;-59
2023/06/01 04:08:19;;;;;;;14.27;5.60;;;;;;;12.67;87.32;101116.47;5024885;28;20695;-60
2023/06/01 04:10:47;;;;;;;16.38;7.00;;;;;;;12.59;87.88;101112.59;5020797;28;20050;-60
2023/06/01 04:13:15;;;;;;;12.02;6.20;;;;;;;12.58;88.10;101113.53;5019664;28;20488;-59
2023/06/01 04:15:42;;;;;;;16.73;6.28;;;;;;;12.56;88.64;101112.75;5022272;28;21667;-58
2023/06/01 04:18:10;;;;;;;17.77;6.80;;;;;;;12.54;89.07;101109.38;5013299;28;20049;-62
2023/06/01 04:20:37;;;;;;;15.05;7.32;;;;;;;12.49;88.98;101119.38;5019146;28;20081;-58
2023/06/01 04:23:04;;;;;;;11.38;6.40;;;;;;;12.44;89.77;101124.91;5017389;28;20060;-60
2023/06/01 04:25:31;;;;;;;16.65;6.47;;;;;;;12.43;89.80;101115.31;4997389;28;20079;-61
2023/06/01 04:27:59;;;;;;;12.73;6.82;;;;;;;12.46;89.63;101124.81;5025333;28;20048;-59
2023/06/01 04:30:26;;;;;;;18.40;7.70;;;;;;;12.52;89.84;101125.31;5026401;28;20049;-62
2023/06/01 04:32:53;;;;;;;14.93;6.70;;;;;;;12.55;89.95;101130.41;5024360;28;20069;-61
2023/06/01 04:35:21;;;;;;;17.80;7.53;;;;;;;12.61;89.78;101127.41;5025449;28;20535;-60
2023/06/01 04:37:50;;;;;;;18.35;7.72;;;;;;;12.65;89.70;101120.13;5020251;28;20176;-62
2023/06/01 04:40:17;;;;;;;18.15;8.50;;;;;;;12.53;90.14;101124.38;5023663;28;20625;-59
2023/06/01 04:42:51;;;;;;;16.85;8.88;;;;;;;12.48;90.38;101122.97;5016707;28;20090;-59
2023/06/01 04:45:19;;;;;;;20.60;8.50;;;;;;;12.44;90.90;101129.34;5022633;28;20425;-60
2023/06/01 04:47:47;;;;;;;20.55;8.27;;;;;;;12.44;91.44;101122.28;5023256;28;20458;-59
2023/06/01 04:50:16;;;;;;;18.63;8.75;;;;;;;12.48;91.37;101126.44;5024544;28;20069;-60
2023/06/01 04:52:45;;;;;;;21.38;10.18;;;;;;;12.47;91.46;101134.44;5027349;28;20545;-60
2023/06/01 04:55:15;;;;;;;20.77;10.00;;;;;;;12.38;91.88;101130.53;5027619;28;20053;-62
2023/06/01 04:57:45;;;;;;;20.70;10.57;;;;;;;12.27;92.48;101136.47;5027869;28;20120;-64
2023/06/01 05:00:17;;;;;;;25.60;10.45;;;;;;;12.20;92.64;101136.88;5035517;22;20064;-77
2023/06/01 05:02:48;;;;;;;17.90;10.30;;;;;;;12.21;93.21;101131.53;5051175;28;20053;-78
2023/06/01 05:05:17;;;;;;;19.35;9.80;;;;;;;12.05;94.06;101133.34;5017408;28;20531;-77
2023/06/01 05:07:46;;;;;;;15.82;9.82;;;;;;;12.00;94.79;101130.13;5033984;28;20171;-77
2023/06/01 05:10:16;;;;;;;22.40;11.23;;;;;;;11.95;95.50;101143.56;5033901;28;20109;-78
2023/06/01 05:12:44;;;;;;;17.90;9.65;;;;;;;11.82;96.31;101134.63;5042434;28;20057;-77
2023/06/01 05:15:16;;;;;;;18.27;9.68;;;;;;;11.77;97.01;101132.22;5025433;28;20049;-78
2023/06/01 05:17:44;;;;;;;20.85;11.10;;;;;;;11.75;97.69;101131.47;5032137;28;20060;-78
2023/06/01 05:20:12;;;;;;;17.50;9.68;;;;;;;11.76;97.38;101127.91;5026586;28;20140;-77
2023/06/01 05:22:40;;;;;;;18.30;10.57;;;;;;;11.74;97.50;101119.22;5033605;28;20056;-79
2023/06/01 05:25:09;;;;;;;17.67;9.35;;;;;;;11.80;97.24;101124.16;5029683;28;20049;-77
2023/06/01 05:27:38;;;;;;;20.52;9.32;;;;;;;11.89;96.97;101128.09;5043561;28;20064;-77
2023/06/01 05:30:08;;;;;;;18.88;10.63;;;;;;;11.87;96.48;101129.97;5042416;28;20052;-75
2023/06/01 05:32:36;;;;;;;18.65;9.95;;;;;;;11.68;98.04;101138.03;4997800;28;20099;-76
2023/06/01 05:35:08;;;;;;;19.17;10.45;;;;;;;11.63;97.74;101133.00;5029576;28;20076;-76
2023/06/01 05:37:38;;;;;;;15.70;8.73;;;;;;;11.62;97.63;101143.66;5011949;28;20037;-76
2023/06/01 05:40:08;;;;;;;19.42;9.35;;;;;;;11.56;97.88;101138.69;5026024;28;20629;-76
2023/06/01 05:42:37;;;;;;;15.63;8.00;;;;;;;11.56;97.93;101136.06;5026929;28;20073;-76
2023/06/01 05:45:06;;;;;;;17.75;9.15;;;;;;;11.63;97.53;101130.38;5044907;28;20124;-76
2023/06/01 05:47:35;;;;;;;18.75;9.88;;;;;;;11.64;95.64;101137.34;5029577;28;20084;-76
2023/06/01 05:50:05;;;;;;;19.08;8.43;;;;;;;11.76;95.04;101143.72;5029343;28;21874;-75
2023/06/01 05:52:36;;;;;;;20.80;8.40;;;;;;;11.88;93.26;101158.03;5028764;28;20080;-75
2023/06/01 05:55:05;;;;;;;14.15;8.00;;;;;;;11.91;91.68;101150.81;5033848;28;20115;-75
2023/06/01 05:57:32;;;;;;;14.27;8.23;;;;;;;11.87;91.15;101156.34;5042612;28;20049;-75
2023/06/01 06:00:00;;;;;;;18.65;7.15;;;;;;;11.84;91.65;101140.66;5007445;28;20503;-75
2023/06/01 06:02:29;;;;;;;17.23;8.52;;;;;;;11.90;90.63;101151.75;5029382;28;20149;-75
2023/06/01 06:04:57;;;;;;;13.90;7.18;;;;;;;11.87;89.89;101146.63;5030232;28;20148;-75
2023/06/01 06:07:27;;;;;;;15.98;7.22;;;;;;;11.90;89.63;101154.38;5030375;28;20053;-75
2023/06/01 06:09:57;;;;;;;20.58;7.25;;;;;;;12.11;89.06;101139.13;5044990;28;20576;-75
2023/06/01 06:12:24;;;;;;;12.75;6.65;;;;;;;12.28;88.53;101145.22;5015661;28;20921;-74
2023/06/01 06:14:53;;;;;;;16.48;7.97;;;;;;;12.37;87.35;101139.41;5029739;28;20516;-75
2023/06/01 06:17:24;;;;;;;14.50;6.45;;;;;;;12.41;86.40;101140.94;5045027;28;20069;-75
2023/06/01 06:19:52;;;;;;;12.18;6.25;;;;;;;12.52;86.29;101137.66;5030432;28;20103;-74
2023/06/01 06:22:20;;;;;;;15.70;6.35;;;;;;;12.57;84.93;101140.91;5028870;28;20053;-75
2023/06/01 06:24:49;;;;;;;13.43;6.20;;;;;;;12.80;83.95;101137.72;5047224;28;20095;-75
2023/06/01 06:27:17;;;;;;;12.75;6.15;;;;;;;12.79;81.98;101137.81;5027707;28;20105;-75
2023/06/01 06:29:44;;;;;;;18.20;6.70;;;;;;;13.03;80.53;101151.34;5015173;28;20088;-75
2023/06/01 06:32:12;;;;;;;12.35;6.07;;;;;;;13.12;79.04;101133.13;5012427;28;20049;-75
2023/06/01 06:34:44;;;;;;;9.85;5.50;;;;;;;13.15;77.85;101145.31;5032526;28;20480;-75
2023/06/01 06:37:11;;;;;;;14.25;5.90;;;;;;;13.23;78.45;101143.06;5027371;28;20803;-75
2023/06/01 06:39:39;;;;;;;9.45;5.85;;;;;;;13.41;77.10;101144.56;5015571;28;20591;-75
2023/06/01 06:42:06;;;;;;;15.23;6.25;;;;;;;13.62;75.91;101139.72;5033380;28;20139;-75
2023/06/01 06:44:37;;;;;;;9.57;5.15;;;;;;;13.88;75.51;101146.00;5036267;28;20143;-75
2023/06/01 06:47:06;;;;;;;8.63;5.03;;;;;;;14.10;73.89;101132.22;5032501;28;20120;-76
2023/06/01 06:49:34;;;;;;;15.05;6.07;;;;;;;14.32;72.44;101141.38;5035430;28;20148;-75
2023/06/01 06:52:01;;;;;;;10.05;5.00;;;;;;;14.18;72.31;101137.00;5019630;28;20107;-75
2023/06/01 06:54:30;;;;;;;11.13;5.03;;;;;;;14.03;72.34;101144.16;5030283;28;20061;-75
2023/06/01 06:56:57;;;;;;;17.23;5.63;;;;;;;14.03;72.64;101128.28;5011302;28;20508;-73
2023/06/01 06:59:25;;;;;;;13.30;5.35;;;;;;;14.08;72.44;101134.13;5010656;28;20052;-75
2023/06/01 07:01:54;;;;;;;12.18;5.63;;;;;;;14.26;71.49;101140.00;5054708;28;20148;-73
2023/06/01 07:04:22;;;;;;;22.17;5.93;;;;;;;14.40;70.94;101136.44;5015036;28;20111;-75
2023/06/01 07:06:51;;;;;;;12.30;5.43;;;;;;;14.37;70.40;101136.66;5030584;28;20144;-75
2023/06/01 07:09:21;;;;;;;14.13;4.90;;;;;;;14.39;70.84;101135.59;5029909;28;20441;-73
2023/06/01 07:11:48;;;;;;;18.13;6.28;;;;;;;14.38;70.15;101130.41;5030575;28;20140;-74
2023/06/01 07:14:16;;;;;;;18.55;6.03;;;;;;;13.89;72.09;101137.13;5028953;28;20042;-74
2023/06/01 07:16:43;;;;;;;12.52;5.57;;;;;;;13.91;71.87;101137.88;5033969;28;20050;-74
2023/06/01 07:19:12;;;;;;;13.43;5.53;;;;;;;13.86;72.15;101129.38;5034031;28;20124;-75
2023/06/01 07:21:42;;;;;;;14.88;5.75;;;;;;;13.97;72.00;101133.13;5047817;28;20112;-74
2023/06/01 07:24:11;;;;;;;17.27;6.57;;;;;;;13.70;72.62;101133.97;5045600;28;20042;-75
2023/06/01 07:26:41;;;;;;;13.70;5.82;;;;;;;13.83;73.07;101131.38;5025604;28;20600;-74
2023/06/01 07:29:09;;;;;;;9.82;5.40;;;;;;;14.12;72.09;101140.91;5028728;28;20053;-74
2023/06/01 07:31:40;;;;;;;14.27;6.57;;;;;;;14.21;70.90;101134.16;5032854;28;20129;-74
2023/06/01 07:34:10;;;;;;;11.80;5.63;;;;;;;14.15;70.89;101139.88;5011288;28;20099;-75
2023/06/01 07:36:41;;;;;;;15.43;6.45;;;;;;;14.29;69.93;101146.91;5027621;28;20115;-75
2023/06/01 07:39:45;;;;;;;13.27;5.38;;;;;;;14.38;69.13;101143.66;5028882;28;20141;-74
2023/06/01 07:42:13;;;;;;;11.90;6.28;;;;;;;14.56;69.02;101136.31;5009395;28;20111;-74
2023/06/01 07:44:40;;;;;;;11.70;5.97;;;;;;;14.61;67.79;101136.84;5014208;28;20041;-76
2023/06/01 07:47:08;;;;;;;16.38;5.85;;;;;;;14.69;67.66;101135.38;5045047;28;20049;-76
2023/06/01 07:49:36;;;;;;;18.48;7.38;;;;;;;14.12;68.82;101130.31;5034028;28;20057;-75
2023/06/01 07:52:09;;;;;;;14.32;5.40;;;;;;;14.09;69.54;101124.38;5026147;28;20161;-75
2023/06/01 07:54:37;;;;;;;13.43;5.30;;;;;;;14.16;68.77;101120.38;5024403;28;20132;-75
2023/06/01 07:57:07;;;;;;;13.05;5.50;;;;;;;14.23;68.80;101134.94;5008797;28;20121;-74
2023/06/01 07:59:40;;;;;;;14.35;5.60;;;;;;;14.11;69.23;101128.63;5028842;28;20041;-75
2023/06/01 08:02:08;;;;;;;13.77;5.53;;;;;;;14.10;68.82;101123.44;5028738;28;20052;-75
2023/06/01 08:04:35;;;;;;;13.82;4.95;;;;;;;14.21;68.48;101120.91;5046414;28;20102;-76
2023/06/01 08:07:08;;;;;;;8.57;5.15;;;;;;;14.19;67.98;101120.19;5024987;28;20054;-75
2023/06/01 08:09:38;;;;;;;12.93;5.97;;;;;;;13.92;68.32;101112.25;5013839;28;20075;-75
2023/06/01 08:12:13;;;;;;;14.43;5.53;;;;;;;13.79;69.24;101114.00;5012737;28;20129;-76
2023/06/01 08:14:44;;;;;;;13.50;6.07;;;;;;;13.89;69.63;101115.09;5032859;28;20586;-75
2023/06/01 08:17:13;;;;;;;13.43;5.95;;;;;;;14.12;69.31;101110.94;5032920;28;20053;-75
2023/06/01 08:19:45;;;;;;;15.20;5.00;;;;;;;14.29;68.51;101110.69;5027953;28;20057;-75
2023/06/01 08:22:12;;;;;;;11.40;5.05;;;;;;;14.49;67.94;101112.00;5053665;28;20072;-74
2023/06/01 08:24:43;;;;;;;11.98;5.32;;;;;;;14.68;67.43;101117.78;5034428;28;20138;-75
2023/06/01 08:27:23;;;;;;;10.95;5.68;;;;;;;14.51;66.86;101104.81;5033477;28;20045;-75
2023/06/01 08:29:53;;;;;;;15.55;5.38;;;;;;;14.56;65.69;101120.41;5028718;28;20064;-75
2023/06/01 08:32:23;;;;;;;12.27;5.75;;;;;;;14.56;65.35;101115.94;5031128;28;20037;-75
2023/06/01 08:34:53;;;;;;;11.02;5.43;;;;;;;14.52;65.96;101113.63;5047093;28;20136;-72
2023/06/01 08:37:21;;;;;;;13.10;5.88;;;;;;;14.57;66.10;101101.75;5034722;28;20045;-75
2023/06/01 08:39:49;;;;;;;13.90;5.05;;;;;;;14.58;66.45;101098.13;5032927;28;20092;-74
2023/06/01 08:42:31;;;;;;;10.73;4.80;;;;;;;14.89;65.62;101107.47;5029078;28;20065;-75
2023/06/01 08:44:58;;;;;;;10.52;4.43;;;;;;;14.94;64.31;101107.16;5024379;28;20133;-74
2023/06/01 08:47:37;;;;;;;13.07;5.28;;;;;;;14.89;64.57;101091.56;5011116;28;20864;-75
2023/06/01 08:50:05;;;;;;;14.85;5.22;;;;;;;15.19;64.22;101099.19;5047439;28;20107;-75
2023/06/01 08:52:34;;;;;;;13.98;5.05;;;;;;;15.41;62.89;101092.38;5036786;28;20455;-74
2023/06/01 08:55:03;;;;;;;9.85;5.28;;;;;;;15.68;62.35;101089.56;5046567;28;20503;-74
2023/06/01 08:57:35;;;;;;;11.63;5.15;;;;;;;15.81;61.66;101082.38;5031456;28;20065;-75
2023/06/01 09:00:04;;;;;;;7.72;4.50;;;;;;;16.00;61.30;101084.53;5015789;28;20099;-74
2023/06/01 09:02:31;;;;;;;17.40;5.85;;;;;;;16.15;60.66;101079.88;5011879;28;20079;-75
2023/06/01 09:04:59;;;;;;;12.18;5.25;;;;;;;16.03;60.00;101088.75;5047174;28;20136;-74
2023/06/01 09:07:29;;;;;;;15.85;5.25;;;;;;;15.78;60.53;101092.38;5034234;28;20046;-73
2023/06/01 09:09:57;;;;;;;10.60;5.07;;;;;;;15.86;60.80;101085.53;5043877;28;20115;-75
2023/06/01 09:12:29;;;;;;;8.88;4.38;;;;;;;16.08;59.80;101083.97;5011850;28;20052;-76
2023/06/01 09:15:17;;;;;;;15.18;4.10;;;;;;;16.34;59.30;101079.31;5045549;28;20153;-75
2023/06/01 09:17:52;;;;;;;12.82;5.00;;;;;;;16.44;58.40;101075.03;5044748;28;20077;-75
2023/06/01 09:20:27;;;;;;;7.65;4.60;;;;;;;16.59;58.47;101079.16;5028301;28;20057;-76
2023/06/01 09:22:57;;;;;;;7.22;4.05;;;;;;;16.77;57.48;101073.41;5027071;28;20615;-76
2023/06/01 09:25:32;;;;;;;12.98;4.88;;;;;;;16.93;56.80;101077.41;5032880;28;20556;-75
2023/06/01 09:28:06;;;;;;;11.43;4.32;;;;;;;17.01;56.30;101070.63;5030867;28;20054;-75
2023/06/01 09:30:44;;;;;;;9.02;4.78;;;;;;;17.00;56.31;101069.78;5043865;28;20409;-75
2023/06/01 09:33:20;;;;;;;12.43;4.45;;;;;;;17.07;57.00;101063.03;5013289;28;20096;-75
2023/06/01 09:35:49;;;;;;;11.97;5.07;;;;;;;17.13;56.48;101075.00;5028937;28;20508;-75
2023/06/01 09:38:22;;;;;;;11.85;4.82;;;;;;;17.21;57.16;101053.94;5026736;28;20534;-74
2023/06/01 09:40:57;;;;;;;12.25;4.50;;;;;;;17.40;56.54;101055.97;5033939;28;20104;-74
2023/06/01 09:43:25;;;;;;;10.82;4.20;;;;;;;17.59;56.28;101058.81;5028219;28;20056;-74
2023/06/01 09:46:13;;;;;;;12.27;4.30;;;;;;;17.55;55.61;101041.41;5033705;28;20083;-74
2023/06/01 09:48:44;;;;;;;14.25;4.65;;;;;;;17.37;55.97;101043.75;5034578;28;20133;-74
2023/06/01 09:51:29;;;;;;;9.65;4.50;;;;;;;17.37;55.40;101048.22;5035052;28;20112;-75
2023/06/01 09:53:59;;;;;;;9.13;4.90;;;;;;;17.55;55.52;101056.53;5044710;28;20042;-75
2023/06/01 09:56:42;;;;;;;15.38;5.15;;;;;;;17.70;54.71;101045.50;5035322;28;20080;-74
2023/06/01 09:59:09;;;;;;;8.05;4.03;;;;;;;17.78;54.26;101044.03;5035753;28;20156;-74
2023/06/01 10:01:42;;;;;;;10.70;4.65;;;;;;;17.91;54.44;101048.22;5014976;28;20099;-74
2023/06/01 10:04:15;;;;;;;8.80;4.50;;;;;;;17.96;53.76;101043.34;5055591;28;20180;-73
2023/06/01 10:06:43;;;;;;;11.43;4.70;;;;;;;18.09;53.82;101040.50;5017492;28;20145;-74
2023/06/01 10:09:15;;;;;;;11.88;5.43;;;;;;;17.90;53.33;101043.03;5034773;28;20061;-75
2023/06/01 10:11:43;;;;;;;13.57;5.65;;;;;;;17.79;53.91;101043.09;5020576;28;20040;-74
2023/06/01 10:14:13;;;;;;;14.13;5.18;;;;;;;17.92;54.64;101030.41;5045554;28;20084;-75
2023/06/01 10:16:42;;;;;;;10.38;4.97;;;;;;;18.28;54.04;101023.84;5034792;28;20148;-75
2023/06/01 10:19:12;;;;;;;12.35;5.22;;;;;;;18.43;52.51;101030.50;5029430;28;20143;-75
2023/06/01 10:21:39;;;;;;;7.25;4.22;;;;;;;18.62;52.38;101028.94;5014499;28;20099;-75
2023/06/01 10:24:08;;;;;;;13.85;5.13;;;;;;;18.85;51.20;101032.28;5033475;28;20092;-75
2023/06/01 10:26:57;;;;;;;12.63;5.55;;;;;;;18.98;50.18;101025.75;5046642;28;20688;-75
2023/06/01 10:29:30;;;;;;;11.98;5.57;;;;;;;18.88;50.39;101029.38;5034777;28;20140;-75
2023/06/01 10:32:01;;;;;;;11.73;5.43;;;;;;;18.86;51.10;101024.16;5033236;28;20144;-75
2023/06/01 10:34:41;;;;;;;12.85;6.00;;;;;;;18.91;50.48;101019.28;5029880;28;20041;-75
2023/06/01 10:37:12;;;;;;;11.05;5.70;;;;;;;19.02;49.71;101023.66;5044321;28;20123;-75
2023/06/01 10:39:40;;;;;;;9.15;5.60;;;;;;;19.12;50.07;101024.53;5026586;28;20420;-75
2023/06/01 10:42:13;;;;;;;11.05;6.22;;;;;;;19.16;49.60;101030.44;5028404;28;20175;-76
2023/06/01 10:44:44;;;;;;;14.93;7.13;;;;;;;18.94;49.85;101010.16;5030803;28;20528;-74
2023/06/01 10:47:11;;;;;;;9.60;5.53;;;;;;;19.21;50.02;101022.88;5048981;28;20141;-76
2023/06/01 10:49:50;;;;;;;12.77;6.32;;;;;;;19.34;49.62;101022.63;5033282;28;20140;-75
2023/06/01 10:52:32;;;;;;;9.90;6.35;;;;;;;19.35;49.35;101011.78;5034706;28;20057;-73
2023/06/01 10:55:06;;;;;;;13.07;7.10;;;;;;;19.49;48.92;101022.06;5016702;28;20095;-74
2023/06/01 10:57:33;;;;;;;10.00;6.97;;;;;;;19.41;49.08;101018.44;5034354;28;20065;-73
2023/06/01 11:00:16;;;;;;;17.27;7.82;;;;;;;19.55;48.87;101018.03;5029109;28;20053;-74
2023/06/01 11:02:59;;;;;;;9.57;6.20;;;;;;;19.68;47.95;101002.59;5034624;28;20161;-75
2023/06/01 11:05:47;;;;;;;9.40;6.82;;;;;;;19.68;47.71;101012.47;5059391;28;20061;-74
2023/06/01 11:08:41;;;;;;;14.55;6.97;;;;;;;19.83;47.78;101004.84;5061474;28;20072;-75
2023/06/01 11:11:09;;;;;;;16.25;6.75;;;;;;;20.07;46.81;101004.41;5040649;28;20084;-74
2023/06/01 11:13:39;;;;;;;10.23;7.53;;;;;;;20.02;46.39;100999.50;5047969;28;20091;-75
2023/06/01 11:16:14;;;;;;;12.00;7.43;;;;;;;20.20;46.98;101011.13;5035390;28;20053;-75
2023/06/01 11:19:08;;;;;;;11.07;6.78;;;;;;;20.29;46.04;101004.09;5029175;28;20502;-75
2023/06/01 11:21:42;;;;;;;8.00;6.50;;;;;;;20.53;45.63;101000.09;5033720;28;20125;-74
2023/06/01 11:24:15;;;;;;;15.25;6.82;;;;;;;20.33;44.53;101000.16;4995156;28;20152;-75
2023/06/01 11:26:43;;;;;;;10.77;6.47;;;;;;;20.50;44.01;101006.63;5028167;28;20077;-74
2023/06/01 11:29:15;;;;;;;13.23;7.40;;;;;;;20.39;44.52;100994.19;5028427;28;20144;-75
2023/06/01 11:31:54;;;;;;;9.95;5.88;;;;;;;20.65;44.68;100986.41;5041689;28;20049;-74
2023/06/01 11:34:37;;;;;;;9.02;6.30;;;;;;;20.82;44.17;100994.66;5026947;28;20136;-74
2023/06/01 11:37:06;;;;;;;9.77;5.68;;;;;;;20.93;43.77;100976.56;5023941;28;20111;-74